createdAt,value
2022-10-03T00:02:10.045Z,71.80
2022-10-03T00:04:36.243Z,72.84
2022-10-03T00:07:02.567Z,72.10
2022-10-03T00:09:28.914Z,71.88
2022-10-03T00:11:55.277Z,70.84
2022-10-03T00:14:21.598Z,71.56
2022-10-03T00:16:47.979Z,71.51
2022-10-03T00:19:14.422Z,71.96
2022-10-03T00:21:41.321Z,72.46
2022-10-03T00:24:07.066Z,72.61
2022-10-03T00:26:33.412Z,72.36
2022-10-03T00:28:59.756Z,73.04
2022-10-03T00:31:26.279Z,72.16
2022-10-03T00:33:52.439Z,72.65
2022-10-03T00:36:18.784Z,73.89
2022-10-03T00:38:45.101Z,73.99
2022-10-03T00:41:11.444Z,73.13
2022-10-03T00:43:37.816Z,72.91
2022-10-03T00:46:04.242Z,73.62
2022-10-03T00:48:30.492Z,73.20
2022-10-03T00:50:56.844Z,73.58
2022-10-03T00:53:23.150Z,73.12
2022-10-03T00:55:49.495Z,73.60
2022-10-03T00:58:15.818Z,73.56
2022-10-03T01:00:42.179Z,72.82
2022-10-03T01:03:08.475Z,73.32
2022-10-03T01:05:34.800Z,73.08
2022-10-03T01:08:01.140Z,72.90
2022-10-03T01:10:27.462Z,72.70
2022-10-03T01:12:53.843Z,72.96
2022-10-03T01:15:20.173Z,73.20
2022-10-03T01:17:46.491Z,72.56
2022-10-03T01:20:12.836Z,72.83
2022-10-03T01:22:39.178Z,73.31
2022-10-03T01:25:05.516Z,72.61
2022-10-03T01:27:31.881Z,72.54
2022-10-03T01:29:58.200Z,72.66
2022-10-03T01:32:24.538Z,73.97
2022-10-03T01:34:50.859Z,74.39
2022-10-03T01:37:17.199Z,74.04
2022-10-03T01:39:43.517Z,73.81
2022-10-03T01:42:09.861Z,73.65
2022-10-03T01:44:36.180Z,73.47
2022-10-03T01:47:02.522Z,73.61
2022-10-03T01:49:28.856Z,74.12
2022-10-03T01:51:55.170Z,73.95
2022-10-03T01:54:21.491Z,73.57
2022-10-03T01:56:47.861Z,73.83
2022-10-03T01:59:14.202Z,73.13
2022-10-03T02:01:40.843Z,72.42
2022-10-03T02:04:06.883Z,71.92
2022-10-03T02:06:33.200Z,71.85
2022-10-03T02:08:59.525Z,71.25
2022-10-03T02:11:25.845Z,71.42
2022-10-03T02:13:52.209Z,71.17
2022-10-03T02:16:18.576Z,71.27
2022-10-03T02:18:44.886Z,72.59
2022-10-03T02:21:11.224Z,72.83
2022-10-03T02:23:37.565Z,73.47
2022-10-03T02:26:03.882Z,73.54
2022-10-03T02:28:30.284Z,73.72
2022-10-03T02:30:56.540Z,73.88
2022-10-03T02:33:22.887Z,74.13
2022-10-03T02:35:49.221Z,73.92
2022-10-03T02:38:15.591Z,73.88
2022-10-03T02:40:41.926Z,74.01
2022-10-03T02:43:08.278Z,74.17
2022-10-03T02:45:34.653Z,74.12
2022-10-03T02:48:27.092Z,74.22
2022-10-03T02:50:27.312Z,74.42
2022-10-03T02:52:53.661Z,74.63
2022-10-03T02:55:19.998Z,74.80
2022-10-03T02:57:46.339Z,75.01
2022-10-03T03:00:12.659Z,75.16
2022-10-03T03:02:38.981Z,75.43
2022-10-03T03:05:05.299Z,76.06
2022-10-03T03:07:31.645Z,75.75
2022-10-03T03:09:57.966Z,75.09
2022-10-03T03:12:24.306Z,75.18
2022-10-03T03:14:50.621Z,75.28
2022-10-03T03:17:16.966Z,74.87
2022-10-03T03:19:43.319Z,75.07
2022-10-03T03:22:09.665Z,75.43
2022-10-03T03:24:35.999Z,75.65
2022-10-03T03:27:02.340Z,75.30
2022-10-03T03:29:28.657Z,75.43
2022-10-03T03:31:55.065Z,75.71
2022-10-03T03:34:21.321Z,75.46
2022-10-03T03:36:47.661Z,75.20
2022-10-03T03:39:13.997Z,74.92
2022-10-03T03:41:40.578Z,74.61
2022-10-03T03:44:06.670Z,74.40
2022-10-03T03:46:33.022Z,73.73
2022-10-03T03:48:59.362Z,74.06
2022-10-03T03:51:25.682Z,73.99
2022-10-03T03:53:52.015Z,74.00
2022-10-03T03:56:18.359Z,73.78
2022-10-03T03:58:44.702Z,74.79
2022-10-03T04:01:11.087Z,74.06
2022-10-03T04:03:37.358Z,74.17
2022-10-03T04:06:03.677Z,74.43
2022-10-03T04:08:30.023Z,74.62
2022-10-03T04:10:56.354Z,74.55
2022-10-03T04:13:22.697Z,74.81
2022-10-03T04:15:49.040Z,74.96
2022-10-03T04:18:15.355Z,75.01
2022-10-03T04:20:41.691Z,75.45
2022-10-03T04:23:08.055Z,75.42
2022-10-03T04:25:34.442Z,75.40
2022-10-03T04:28:00.852Z,75.51
2022-10-03T04:30:27.098Z,75.23
2022-10-03T04:32:53.430Z,75.11
2022-10-03T04:35:19.747Z,74.90
2022-10-03T04:37:46.108Z,74.36
2022-10-03T04:40:12.486Z,73.90
2022-10-03T04:42:38.799Z,73.47
2022-10-03T04:45:05.121Z,73.65
2022-10-03T04:47:31.468Z,73.82
2022-10-03T04:49:57.823Z,73.90
2022-10-03T04:52:24.170Z,73.75
2022-10-03T04:54:50.507Z,74.02
2022-10-03T04:57:16.891Z,73.84
2022-10-03T04:59:43.208Z,73.12
2022-10-03T05:02:09.620Z,73.12
2022-10-03T05:04:35.854Z,72.68
2022-10-03T05:07:02.203Z,72.68
2022-10-03T05:09:28.514Z,73.05
2022-10-03T05:11:54.833Z,73.29
2022-10-03T05:14:21.157Z,73.20
2022-10-03T05:16:47.586Z,73.58
2022-10-03T05:19:13.842Z,72.90
2022-10-03T05:21:40.657Z,72.63
2022-10-03T05:24:06.553Z,72.85
2022-10-03T05:26:44.576Z,72.06
2022-10-03T05:28:59.270Z,71.99
2022-10-03T05:31:25.654Z,72.24
2022-10-03T05:33:51.932Z,71.91
2022-10-03T05:36:18.307Z,71.24
2022-10-03T05:38:44.641Z,70.43
2022-10-03T05:41:10.983Z,69.92
2022-10-03T05:43:37.299Z,69.17
2022-10-03T05:46:03.704Z,69.05
2022-10-03T05:48:29.957Z,69.39
2022-10-03T05:50:56.314Z,69.35
2022-10-03T05:53:22.671Z,69.42
2022-10-03T05:55:48.992Z,69.18
2022-10-03T05:58:15.326Z,69.29
2022-10-03T06:00:41.656Z,68.62
2022-10-03T06:03:08.106Z,67.95
2022-10-03T06:05:34.399Z,67.24
2022-10-03T06:08:00.726Z,67.29
2022-10-03T06:10:27.037Z,66.76
2022-10-03T06:12:53.377Z,66.83
2022-10-03T06:15:19.908Z,67.41
2022-10-03T06:17:46.245Z,66.22
2022-10-03T06:20:12.595Z,64.94
2022-10-03T06:22:38.954Z,64.24
2022-10-03T06:25:05.319Z,63.80
2022-10-03T06:27:31.631Z,63.59
2022-10-03T06:29:57.990Z,63.47
2022-10-03T06:32:24.328Z,63.93
2022-10-03T06:34:50.645Z,64.05
2022-10-03T06:37:16.970Z,63.19
2022-10-03T06:39:43.306Z,63.98
2022-10-03T06:42:09.647Z,64.29
2022-10-03T06:44:35.982Z,64.49
2022-10-03T06:47:02.354Z,64.54
2022-10-03T06:49:28.670Z,65.14
2022-10-03T06:51:55.005Z,65.22
2022-10-03T06:54:21.365Z,64.94
2022-10-03T06:56:50.081Z,65.25
2022-10-03T06:59:14.053Z,65.81
2022-10-03T07:01:40.754Z,66.16
2022-10-03T07:04:06.757Z,66.54
2022-10-03T07:06:33.050Z,66.52
2022-10-03T07:08:59.422Z,67.11
2022-10-03T07:11:25.756Z,66.79
2022-10-03T07:13:52.080Z,66.97
2022-10-03T07:16:26.907Z,67.49
2022-10-03T07:18:44.764Z,67.79
2022-10-03T07:21:14.798Z,68.27
2022-10-03T07:23:37.556Z,69.04
2022-10-03T07:26:03.894Z,69.46
2022-10-03T07:28:30.442Z,69.73
2022-10-03T07:30:56.627Z,70.46
2022-10-03T07:33:23.027Z,70.97
2022-10-03T07:35:49.280Z,71.22
2022-10-03T07:38:15.596Z,71.29
2022-10-03T07:40:41.935Z,71.58
2022-10-03T07:43:08.278Z,71.84
2022-10-03T07:45:34.693Z,71.75
2022-10-03T07:48:00.988Z,71.87
2022-10-03T07:50:27.323Z,71.65
2022-10-03T07:52:53.676Z,71.38
2022-10-03T07:55:19.997Z,70.71
2022-10-03T07:57:46.340Z,70.51
2022-10-03T08:00:12.681Z,69.76
2022-10-03T08:02:39.144Z,70.03
2022-10-03T08:05:05.318Z,69.86
2022-10-03T08:07:31.670Z,69.38
2022-10-03T08:09:57.983Z,69.57
2022-10-03T08:12:24.308Z,69.50
2022-10-03T08:14:50.648Z,69.60
2022-10-03T08:17:16.970Z,70.29
2022-10-03T08:19:43.292Z,70.22
2022-10-03T08:22:09.630Z,70.39
2022-10-03T08:24:35.956Z,70.63
2022-10-03T08:27:02.300Z,70.81
2022-10-03T08:29:28.633Z,70.60
2022-10-03T08:31:54.957Z,70.53
2022-10-03T08:34:21.292Z,70.50
2022-10-03T08:36:47.633Z,70.08
2022-10-03T08:39:13.986Z,70.09
2022-10-03T08:41:40.515Z,69.86
2022-10-03T08:44:06.649Z,69.70
2022-10-03T08:46:33.027Z,69.38
2022-10-03T08:48:59.322Z,70.18
2022-10-03T08:51:25.667Z,70.32
2022-10-03T08:53:51.979Z,70.32
2022-10-03T08:56:18.321Z,70.66
2022-10-03T08:58:44.653Z,70.95
2022-10-03T09:01:11.015Z,70.38
2022-10-03T09:03:42.084Z,69.99
2022-10-03T09:06:03.673Z,70.21
2022-10-03T09:08:29.977Z,70.38
2022-10-03T09:10:56.301Z,70.43
2022-10-03T09:13:22.632Z,69.27
2022-10-03T09:15:49.015Z,69.88
2022-10-03T09:18:15.286Z,69.34
2022-10-03T09:20:41.639Z,68.74
2022-10-03T09:23:07.966Z,68.58
2022-10-03T09:25:34.297Z,68.70
2022-10-03T09:28:00.665Z,68.88
2022-10-03T09:30:26.955Z,68.55
2022-10-03T09:32:53.258Z,67.81
2022-10-03T09:35:19.847Z,68.30
2022-10-03T09:37:46.174Z,68.22
2022-10-03T09:40:12.532Z,67.75
2022-10-03T09:42:38.877Z,66.35
2022-10-03T09:45:05.267Z,64.70
2022-10-03T09:47:31.572Z,63.10
2022-10-03T09:49:57.890Z,63.31
2022-10-03T09:52:24.237Z,62.45
2022-10-03T09:54:50.569Z,62.90
2022-10-03T09:57:22.046Z,62.89
2022-10-03T09:59:43.240Z,62.65
2022-10-03T10:02:09.606Z,59.80
2022-10-03T10:04:53.541Z,56.78
2022-10-03T10:07:02.295Z,54.27
2022-10-03T10:09:28.662Z,54.50
2022-10-03T10:11:54.983Z,56.35
2022-10-03T10:14:21.302Z,56.83
2022-10-03T10:16:48.595Z,56.53
2022-10-03T10:19:14.002Z,55.76
2022-10-03T10:21:40.323Z,56.02
2022-10-03T10:24:06.679Z,54.17
2022-10-03T10:26:33.011Z,54.83
2022-10-03T10:28:59.332Z,54.20
2022-10-03T10:31:25.719Z,54.18
2022-10-03T10:33:51.972Z,54.04
2022-10-03T10:36:18.274Z,53.92
2022-10-03T10:38:44.646Z,54.27
2022-10-03T10:41:10.991Z,53.59
2022-10-03T10:43:37.321Z,54.05
2022-10-03T10:46:03.646Z,53.61
2022-10-03T10:48:29.982Z,53.64
2022-10-03T10:50:56.315Z,53.91
2022-10-03T10:53:22.637Z,52.17
2022-10-03T10:55:48.973Z,52.30
2022-10-03T10:58:15.333Z,52.93
2022-10-03T11:00:41.671Z,51.78
2022-10-03T11:03:07.961Z,51.52
2022-10-03T11:05:34.305Z,51.29
2022-10-03T11:08:00.625Z,50.15
2022-10-03T11:10:26.940Z,51.42
2022-10-03T11:12:53.328Z,51.62
2022-10-03T11:15:19.629Z,51.30
2022-10-03T11:17:45.965Z,52.75
2022-10-03T11:20:12.314Z,53.93
2022-10-03T11:22:38.648Z,55.20
2022-10-03T11:25:04.982Z,55.76
2022-10-03T11:27:31.346Z,54.28
2022-10-03T11:29:57.644Z,54.23
2022-10-03T11:32:23.977Z,53.42
2022-10-03T11:34:50.303Z,52.57
2022-10-03T11:37:16.663Z,52.99
2022-10-03T11:39:43.033Z,52.85
2022-10-03T11:42:09.356Z,53.71
2022-10-03T11:44:35.673Z,53.94
2022-10-03T11:47:02.052Z,52.62
2022-10-03T11:49:28.463Z,51.58
2022-10-03T11:51:54.781Z,50.01
2022-10-03T11:54:31.029Z,50.57
2022-10-03T11:56:47.489Z,50.32
2022-10-03T11:59:13.913Z,51.04
2022-10-03T12:01:40.568Z,50.67
2022-10-03T12:04:06.621Z,49.50
2022-10-03T12:06:32.933Z,49.98
2022-10-03T12:08:59.256Z,48.64
2022-10-03T12:11:25.620Z,48.36
2022-10-03T12:13:51.950Z,47.75
2022-10-03T12:16:18.329Z,46.11
2022-10-03T12:18:44.645Z,45.46
2022-10-03T12:21:10.973Z,43.68
2022-10-03T12:23:37.298Z,44.25
2022-10-03T12:26:03.680Z,43.32
2022-10-03T12:28:30.035Z,42.78
2022-10-03T12:30:56.315Z,42.10
2022-10-03T12:33:22.690Z,41.66
2022-10-03T12:35:49.026Z,40.70
2022-10-03T12:38:15.360Z,40.21
2022-10-03T12:40:41.683Z,40.52
2022-10-03T12:43:08.001Z,39.91
2022-10-03T12:45:34.363Z,40.34
2022-10-03T12:48:00.663Z,40.86
2022-10-03T12:50:27.004Z,40.66
2022-10-03T12:52:53.342Z,41.43
2022-10-03T12:55:19.675Z,41.36
2022-10-03T12:57:45.978Z,41.50
2022-10-03T13:00:12.300Z,42.31
2022-10-03T13:02:38.751Z,42.70
2022-10-03T13:05:05.020Z,42.58
2022-10-03T13:07:31.342Z,41.81
2022-10-03T13:09:57.715Z,42.96
2022-10-03T13:12:27.694Z,43.77
2022-10-03T13:14:50.373Z,44.45
2022-10-03T13:17:16.714Z,44.66
2022-10-03T13:19:43.058Z,45.44
2022-10-03T13:22:10.404Z,46.06
2022-10-03T13:24:36.766Z,46.74
2022-10-03T13:27:03.082Z,46.08
2022-10-03T13:29:29.425Z,45.78
2022-10-03T13:31:55.766Z,45.39
2022-10-03T13:34:22.100Z,43.98
2022-10-03T13:36:48.415Z,43.91
2022-10-03T13:39:14.747Z,43.39
2022-10-03T13:41:41.516Z,42.88
2022-10-03T13:44:07.413Z,43.11
2022-10-03T13:46:33.868Z,43.22
2022-10-03T13:49:02.179Z,43.61
2022-10-03T13:51:26.459Z,43.58
2022-10-03T13:53:52.780Z,44.06
2022-10-03T13:56:19.090Z,44.80
2022-10-03T13:58:45.444Z,44.90
2022-10-03T14:01:11.826Z,45.29
2022-10-03T14:03:38.149Z,44.99
2022-10-03T14:06:04.463Z,44.96
2022-10-03T14:08:30.800Z,45.14
2022-10-03T14:10:57.134Z,44.58
2022-10-03T14:13:23.510Z,44.83
2022-10-03T14:15:49.929Z,44.14
2022-10-03T14:18:16.208Z,44.34
2022-10-03T14:20:42.510Z,44.56
2022-10-03T14:23:08.826Z,44.35
2022-10-03T14:25:35.185Z,43.96
2022-10-03T14:28:01.619Z,43.61
2022-10-03T14:30:27.838Z,44.11
2022-10-03T14:32:54.260Z,43.24
2022-10-03T14:35:20.529Z,42.63
2022-10-03T14:37:46.862Z,42.60
2022-10-03T14:40:13.180Z,43.34
2022-10-03T14:42:39.481Z,43.62
2022-10-03T14:45:05.815Z,44.13
2022-10-03T14:47:32.143Z,44.45
2022-10-03T14:49:59.751Z,44.89
2022-10-03T14:52:24.824Z,45.66
2022-10-03T14:54:51.135Z,46.23
2022-10-03T14:57:17.455Z,47.08
2022-10-03T14:59:43.806Z,47.69
2022-10-03T15:02:10.196Z,48.33
2022-10-03T15:04:36.466Z,48.95
2022-10-03T15:07:02.781Z,49.29
2022-10-03T15:09:29.167Z,49.14
2022-10-03T15:11:55.487Z,49.79
2022-10-03T15:14:21.831Z,49.72
2022-10-03T15:16:48.186Z,49.61
2022-10-03T15:19:14.507Z,49.39
2022-10-03T15:21:41.107Z,49.60
2022-10-03T15:24:07.220Z,49.71
2022-10-03T15:26:33.522Z,50.54
2022-10-03T15:28:59.865Z,50.34
2022-10-03T15:31:26.267Z,50.34
2022-10-03T15:33:52.593Z,50.61
2022-10-03T15:36:18.927Z,50.58
2022-10-03T15:38:45.254Z,51.37
2022-10-03T15:41:11.599Z,51.26
2022-10-03T15:43:37.949Z,51.76
2022-10-03T15:46:04.356Z,51.90
2022-10-03T15:48:30.619Z,52.15
2022-10-03T15:50:56.998Z,52.16
2022-10-03T15:53:38.345Z,52.33
2022-10-03T15:55:49.644Z,52.35
2022-10-03T15:58:15.999Z,52.59
2022-10-03T16:00:42.356Z,52.86
2022-10-03T16:03:08.654Z,53.38
2022-10-03T16:05:34.969Z,53.17
2022-10-03T16:08:01.297Z,53.56
2022-10-03T16:10:27.698Z,53.70
2022-10-03T16:12:54.074Z,53.47
2022-10-03T16:15:20.377Z,53.63
2022-10-03T16:17:46.739Z,53.59
2022-10-03T16:20:13.087Z,53.38
2022-10-03T16:22:39.713Z,53.35
2022-10-03T16:25:06.083Z,53.23
2022-10-03T16:27:32.411Z,53.51
2022-10-03T16:29:58.748Z,53.21
2022-10-03T16:32:25.070Z,53.33
2022-10-03T16:34:51.397Z,53.00
2022-10-03T16:37:17.727Z,53.67
2022-10-03T16:39:46.436Z,53.62
2022-10-03T16:42:10.406Z,53.70
2022-10-03T16:44:36.783Z,54.21
2022-10-03T16:47:03.163Z,54.14
2022-10-03T16:49:29.482Z,54.02
2022-10-03T16:51:55.809Z,54.30
2022-10-03T16:54:22.186Z,54.85
2022-10-03T16:56:48.508Z,55.12
2022-10-03T16:59:14.844Z,54.78
2022-10-03T17:01:41.583Z,55.16
2022-10-03T17:04:07.555Z,54.84
2022-10-03T17:06:33.877Z,54.86
2022-10-03T17:09:00.227Z,54.95
2022-10-03T17:11:26.547Z,54.42
2022-10-03T17:13:52.897Z,54.83
2022-10-03T17:16:19.327Z,54.37
2022-10-03T17:18:45.614Z,54.84
2022-10-03T17:21:11.935Z,54.87
2022-10-03T17:23:38.307Z,55.01
2022-10-03T17:26:04.647Z,54.82
2022-10-03T17:28:31.042Z,54.83
2022-10-03T17:30:57.317Z,55.39
2022-10-03T17:33:23.651Z,55.59
2022-10-03T17:35:49.976Z,55.80
2022-10-03T17:38:44.461Z,55.97
2022-10-03T17:40:42.658Z,55.81
2022-10-03T17:43:08.993Z,55.88
2022-10-03T17:45:35.399Z,56.16
2022-10-03T17:48:01.656Z,56.60
2022-10-03T17:50:27.970Z,56.36
2022-10-03T17:52:54.322Z,56.73
2022-10-03T17:55:20.646Z,56.74
2022-10-03T17:57:46.984Z,56.74
2022-10-03T18:00:13.340Z,56.67
2022-10-03T18:02:39.729Z,56.73
2022-10-03T18:05:05.976Z,56.77
2022-10-03T18:07:32.299Z,57.00
2022-10-03T18:09:58.697Z,57.24
2022-10-03T18:12:25.004Z,57.11
2022-10-03T18:14:51.326Z,57.24
2022-10-03T18:17:17.680Z,57.48
2022-10-03T18:19:44.048Z,57.45
2022-10-03T18:22:10.388Z,57.12
2022-10-03T18:24:36.707Z,57.23
2022-10-03T18:27:03.067Z,57.46
2022-10-03T18:29:29.393Z,57.53
2022-10-03T18:31:55.824Z,57.37
2022-10-03T18:34:22.068Z,57.24
2022-10-03T18:36:48.404Z,56.96
2022-10-03T18:39:14.733Z,57.11
2022-10-03T18:41:41.263Z,56.68
2022-10-03T18:44:07.403Z,56.69
2022-10-03T18:46:33.763Z,56.50
2022-10-03T18:51:26.440Z,56.38
2022-10-03T18:53:52.782Z,56.37
2022-10-03T18:56:19.103Z,56.07
2022-10-03T18:58:45.426Z,56.13
2022-10-03T19:01:11.865Z,55.94
2022-10-03T19:03:38.108Z,56.32
2022-10-03T19:06:04.443Z,56.41
2022-10-03T19:08:30.881Z,56.64
2022-10-03T19:10:57.129Z,56.71
2022-10-03T19:13:23.450Z,56.88
2022-10-03T19:15:49.784Z,57.14
2022-10-03T19:18:16.142Z,57.46
2022-10-03T19:20:42.445Z,57.69
2022-10-03T19:23:08.795Z,57.78
2022-10-03T19:25:35.108Z,57.72
2022-10-03T19:28:01.572Z,57.92
2022-10-03T19:30:27.795Z,57.95
2022-10-03T19:32:54.115Z,57.95
2022-10-03T19:35:20.465Z,58.24
2022-10-03T19:37:46.809Z,57.69
2022-10-03T19:40:13.151Z,57.35
2022-10-03T19:42:39.476Z,57.13
2022-10-03T19:45:05.799Z,57.49
2022-10-03T19:47:32.144Z,57.42
2022-10-03T19:49:58.489Z,57.44
2022-10-03T19:52:24.830Z,57.48
2022-10-03T19:54:51.147Z,57.39
2022-10-03T19:57:17.485Z,57.62
2022-10-03T19:59:43.826Z,57.59
2022-10-03T20:02:10.191Z,57.65
2022-10-03T20:04:37.037Z,57.79
2022-10-03T20:07:02.834Z,58.19
2022-10-03T20:09:29.177Z,58.13
2022-10-03T20:11:55.517Z,58.52
2022-10-03T20:14:21.889Z,58.33
2022-10-03T20:16:48.308Z,58.57
2022-10-03T20:19:14.566Z,58.63
2022-10-03T20:21:41.161Z,58.34
2022-10-03T20:24:07.276Z,58.71
2022-10-03T20:26:33.592Z,58.54
2022-10-03T20:28:59.947Z,58.29
2022-10-03T20:31:26.304Z,58.30
2022-10-03T20:33:52.584Z,58.52
2022-10-03T20:36:18.976Z,58.35
2022-10-03T20:38:45.316Z,58.53
2022-10-03T20:41:11.639Z,58.50
2022-10-03T20:43:41.554Z,58.69
2022-10-03T20:46:04.349Z,58.69
2022-10-03T20:48:30.663Z,58.97
2022-10-03T20:50:56.983Z,59.18
2022-10-03T20:53:23.327Z,59.32
2022-10-03T20:55:49.650Z,59.53
2022-10-03T20:58:15.993Z,59.70
2022-10-03T21:00:42.353Z,59.67
2022-10-03T21:03:08.637Z,59.93
2022-10-03T21:05:35.021Z,59.87
2022-10-03T21:08:01.298Z,60.07
2022-10-03T21:10:27.624Z,60.19
2022-10-03T21:12:53.966Z,60.38
2022-10-03T21:15:20.307Z,60.35
2022-10-03T21:17:46.625Z,60.58
2022-10-03T21:20:12.952Z,60.86
2022-10-03T21:22:39.286Z,60.95
2022-10-03T21:25:05.631Z,61.14
2022-10-03T21:27:31.962Z,61.09
2022-10-03T21:29:58.285Z,61.30
2022-10-03T21:32:24.616Z,61.72
2022-10-03T21:34:50.975Z,61.62
2022-10-03T21:37:17.291Z,61.42
2022-10-03T21:39:43.632Z,61.59
2022-10-03T21:42:09.948Z,61.82
2022-10-03T21:44:36.331Z,61.90
2022-10-03T21:47:02.682Z,62.02
2022-10-03T21:49:29.024Z,61.99
2022-10-03T21:51:55.340Z,62.02
2022-10-03T21:54:21.690Z,62.16
2022-10-03T21:56:48.010Z,61.89
2022-10-03T21:59:14.356Z,61.74
2022-10-03T22:01:40.990Z,61.70
2022-10-03T22:04:07.017Z,61.67
2022-10-03T22:06:33.358Z,61.71
2022-10-03T22:08:59.679Z,61.64
2022-10-03T22:11:26.053Z,61.35
2022-10-03T22:13:52.396Z,61.51
2022-10-03T22:16:18.757Z,61.38
2022-10-03T22:18:45.059Z,61.73
2022-10-03T22:21:11.401Z,61.81
2022-10-03T22:23:37.741Z,61.80
2022-10-03T22:26:04.057Z,61.76
2022-10-03T22:28:30.411Z,61.63
2022-10-03T22:30:56.747Z,61.90
2022-10-03T22:33:23.063Z,61.88
2022-10-03T22:35:49.380Z,61.96
2022-10-03T22:38:15.702Z,61.67
2022-10-03T22:40:42.024Z,61.55
2022-10-03T22:43:08.349Z,61.66
2022-10-03T22:45:34.667Z,61.28
2022-10-03T22:48:01.059Z,61.19
2022-10-03T22:50:27.394Z,61.24
2022-10-03T22:52:53.735Z,61.09
2022-10-03T22:55:20.069Z,61.06
2022-10-03T22:57:46.382Z,61.00
2022-10-03T23:00:12.749Z,61.03
2022-10-03T23:02:39.154Z,61.08
2022-10-03T23:05:05.427Z,61.35
2022-10-03T23:07:31.814Z,61.10
2022-10-03T23:09:58.131Z,60.83
2022-10-03T23:12:24.490Z,60.99
2022-10-03T23:14:50.817Z,60.83
2022-10-03T23:17:17.161Z,60.81
2022-10-03T23:19:43.474Z,60.80
2022-10-03T23:22:09.834Z,60.53
2022-10-03T23:24:36.146Z,60.62
2022-10-03T23:27:02.491Z,60.43
2022-10-03T23:29:28.829Z,60.47
2022-10-03T23:31:55.190Z,60.49
2022-10-03T23:34:21.539Z,60.26
2022-10-03T23:36:47.881Z,59.95
2022-10-03T23:39:14.290Z,60.16
2022-10-03T23:41:40.660Z,60.10
2022-10-03T23:44:06.883Z,60.18
2022-10-03T23:46:33.248Z,60.04
2022-10-03T23:48:59.551Z,60.14
2022-10-03T23:51:25.934Z,60.16
2022-10-03T23:53:52.249Z,60.37
2022-10-03T23:56:18.585Z,60.37
2022-10-03T23:58:45.206Z,60.54
